AMQ133 LGRP-EPKT
Flight info
| Callsign | AMQ133 |
|---|---|
| Flight time | N/A |
| Altitude | 34000 |
| Route | VANES UM601 ADESO UN133 PEREN UL863 EVIVI L863 OKANA DCT ESIRI DCT PARAK DCT LITKU DCT REDSI/N0452F350 DCT MEBAN |
| Aircraft | A321/M-SDE3FGHIRWY/LB1 |
Departure
| Time | 2026-05-01 12:15 |
|---|---|
| Airport | Rhodes International Airport "Diagoras" (LGRP) |
Arrival
| Time | N/A |
|---|---|
| Airport | Katowice Wojciech Korfanty International Airport (EPKT) |
| Time | Latitude | Longitude | Altitude | Speed | Heading |
|---|---|---|---|---|---|
| 2026-05-01 11:39 | 36.40378 | 28.09185 | 28 ft | 0 kts | 159° |
| 2026-05-01 12:05 | 36.40395 | 28.09177 | 28 ft | 4 kts | 159° |
| 2026-05-01 12:05 | 36.40433 | 28.09149 | 28 ft | 4 kts | 104° |
| 2026-05-01 12:05 | 36.40433 | 28.09118 | 28 ft | 3 kts | 71° |
| 2026-05-01 12:06 | 36.40439 | 28.09138 | 28 ft | 3 kts | 70° |
| 2026-05-01 12:06 | 36.40440 | 28.09142 | 28 ft | 0 kts | 70° |
| 2026-05-01 12:10 | 36.40442 | 28.09147 | 28 ft | 4 kts | 70° |
| 2026-05-01 12:10 | 36.40462 | 28.09215 | 28 ft | 14 kts | 70° |
| 2026-05-01 12:11 | 36.40581 | 28.09416 | 28 ft | 13 kts | 43° |
| 2026-05-01 12:11 | 36.40617 | 28.09512 | 28 ft | 13 kts | 70° |
| 2026-05-01 12:11 | 36.40654 | 28.09641 | 28 ft | 19 kts | 70° |
| 2026-05-01 12:12 | 36.40707 | 28.09815 | 28 ft | 23 kts | 70° |
| 2026-05-01 12:12 | 36.40759 | 28.09995 | 28 ft | 21 kts | 70° |
| 2026-05-01 12:12 | 36.40807 | 28.10161 | 28 ft | 20 kts | 70° |
| 2026-05-01 12:12 | 36.40851 | 28.10312 | 28 ft | 18 kts | 70° |
| 2026-05-01 12:13 | 36.40897 | 28.10431 | 28 ft | 13 kts | 36° |
| 2026-05-01 12:13 | 36.40960 | 28.10420 | 28 ft | 0 kts | 326° |
| 2026-05-01 12:14 | 36.40967 | 28.10414 | 27 ft | 6 kts | 326° |
| 2026-05-01 12:14 | 36.41012 | 28.10307 | 27 ft | 21 kts | 283° |
| 2026-05-01 12:14 | 36.40962 | 28.10063 | 27 ft | 44 kts | 250° |
| 2026-05-01 12:14 | 36.40782 | 28.09449 | 31 ft | 104 kts | 250° |
| 2026-05-01 12:15 | 36.40476 | 28.08408 | 28 ft | 150 kts | 250° |
| 2026-05-01 12:15 | 36.40105 | 28.07107 | 385 ft | 162 kts | 252° |
| 2026-05-01 12:15 | 36.39803 | 28.05749 | 960 ft | 165 kts | 263° |
| 2026-05-01 12:15 | 36.39677 | 28.04295 | 1327 ft | 178 kts | 267° |
| 2026-05-01 12:16 | 36.39576 | 28.02682 | 1466 ft | 197 kts | 268° |
| 2026-05-01 12:16 | 36.39466 | 28.00921 | 1720 ft | 209 kts | 267° |
| 2026-05-01 12:16 | 36.39344 | 27.99104 | 2106 ft | 213 kts | 268° |
| 2026-05-01 12:16 | 36.39211 | 27.97184 | 2294 ft | 234 kts | 266° |
| 2026-05-01 12:17 | 36.39061 | 27.95088 | 2648 ft | 252 kts | 266° |
| 2026-05-01 12:17 | 36.38898 | 27.92903 | 3357 ft | 255 kts | 266° |
| 2026-05-01 12:17 | 36.38728 | 27.90713 | 4118 ft | 256 kts | 265° |
| 2026-05-01 12:17 | 36.38557 | 27.88508 | 4857 ft | 257 kts | 266° |
| 2026-05-01 12:18 | 36.38386 | 27.86299 | 5610 ft | 258 kts | 267° |
| 2026-05-01 12:18 | 36.38372 | 27.84077 | 6342 ft | 257 kts | 272° |
| 2026-05-01 12:18 | 36.38399 | 27.81857 | 7061 ft | 257 kts | 271° |
| 2026-05-01 12:18 | 36.38424 | 27.79629 | 7742 ft | 259 kts | 271° |
| 2026-05-01 12:19 | 36.38449 | 27.77394 | 8434 ft | 260 kts | 271° |
| 2026-05-01 12:19 | 36.38474 | 27.75141 | 9096 ft | 262 kts | 271° |
| 2026-05-01 12:19 | 36.38533 | 27.72876 | 9743 ft | 264 kts | 276° |
| 2026-05-01 12:19 | 36.38814 | 27.70604 | 10229 ft | 272 kts | 278° |
| 2026-05-01 12:20 | 36.39120 | 27.68200 | 10373 ft | 292 kts | 278° |
| 2026-05-01 12:20 | 36.39446 | 27.65637 | 10498 ft | 309 kts | 278° |
| 2026-05-01 12:20 | 36.39787 | 27.62920 | 10624 ft | 326 kts | 278° |
| 2026-05-01 12:20 | 36.40140 | 27.60081 | 10893 ft | 337 kts | 278° |
| 2026-05-01 12:21 | 36.40548 | 27.57201 | 11397 ft | 341 kts | 284° |
| 2026-05-01 12:21 | 36.41561 | 27.54522 | 11912 ft | 348 kts | 303° |
| 2026-05-01 12:21 | 36.43140 | 27.52215 | 12452 ft | 352 kts | 308° |
| 2026-05-01 12:21 | 36.44780 | 27.49945 | 13015 ft | 354 kts | 308° |
| 2026-05-01 12:22 | 36.46434 | 27.47659 | 13538 ft | 357 kts | 308° |
| 2026-05-01 12:22 | 36.48091 | 27.45363 | 14050 ft | 359 kts | 308° |
| 2026-05-01 12:22 | 36.49761 | 27.43044 | 14530 ft | 360 kts | 308° |
| 2026-05-01 12:22 | 36.51435 | 27.40720 | 14962 ft | 363 kts | 308° |
| 2026-05-01 12:23 | 36.53123 | 27.38370 | 15382 ft | 365 kts | 308° |
| 2026-05-01 12:23 | 36.54818 | 27.36008 | 15796 ft | 368 kts | 308° |
| 2026-05-01 12:23 | 36.56523 | 27.33622 | 16206 ft | 370 kts | 308° |
| 2026-05-01 12:23 | 36.58238 | 27.31227 | 16600 ft | 372 kts | 308° |
| 2026-05-01 12:24 | 36.59964 | 27.28814 | 16978 ft | 374 kts | 308° |
| 2026-05-01 12:24 | 36.61698 | 27.26386 | 17352 ft | 376 kts | 307° |
| 2026-05-01 12:24 | 36.63440 | 27.23942 | 17716 ft | 379 kts | 307° |
| 2026-05-01 12:24 | 36.65192 | 27.21483 | 18082 ft | 381 kts | 307° |
| 2026-05-01 12:25 | 36.66956 | 27.19011 | 18413 ft | 383 kts | 307° |
| 2026-05-01 12:25 | 36.70513 | 27.14032 | 19116 ft | 385 kts | 307° |
| 2026-05-01 12:25 | 36.72297 | 27.11533 | 19477 ft | 387 kts | 307° |
| 2026-05-01 12:26 | 36.74087 | 27.09024 | 19855 ft | 388 kts | 307° |
| 2026-05-01 12:26 | 36.77670 | 27.03988 | 20617 ft | 389 kts | 307° |
| 2026-05-01 12:26 | 36.79467 | 27.01452 | 20979 ft | 391 kts | 307° |
| 2026-05-01 12:27 | 36.81270 | 26.98908 | 21354 ft | 392 kts | 307° |
| 2026-05-01 12:27 | 36.84892 | 26.93797 | 22082 ft | 394 kts | 307° |
| 2026-05-01 12:28 | 36.88513 | 26.88686 | 22791 ft | 397 kts | 307° |
| 2026-05-01 12:28 | 36.90341 | 26.86096 | 23151 ft | 398 kts | 307° |
| 2026-05-01 12:28 | 36.94004 | 26.80895 | 23806 ft | 400 kts | 307° |
| 2026-05-01 12:29 | 36.95846 | 26.78282 | 24095 ft | 400 kts | 307° |
| 2026-05-01 12:29 | 36.97688 | 26.75670 | 24405 ft | 401 kts | 306° |
| 2026-05-01 12:29 | 37.01376 | 26.70431 | 25019 ft | 402 kts | 306° |
| 2026-05-01 12:30 | 37.05072 | 26.65171 | 25611 ft | 403 kts | 306° |
| 2026-05-01 12:30 | 37.06921 | 26.62538 | 25906 ft | 403 kts | 306° |
| 2026-05-01 12:30 | 37.08770 | 26.59901 | 26185 ft | 403 kts | 306° |
| 2026-05-01 12:31 | 37.10622 | 26.57254 | 26446 ft | 404 kts | 306° |
| 2026-05-01 12:31 | 37.12471 | 26.54607 | 26711 ft | 404 kts | 306° |
| 2026-05-01 12:31 | 37.14321 | 26.51957 | 26963 ft | 404 kts | 306° |
| 2026-05-01 12:31 | 37.16173 | 26.49304 | 27221 ft | 405 kts | 306° |
| 2026-05-01 12:32 | 37.18033 | 26.46643 | 27427 ft | 406 kts | 306° |
| 2026-05-01 12:32 | 37.21753 | 26.41317 | 27825 ft | 406 kts | 306° |
| 2026-05-01 12:32 | 37.23610 | 26.38654 | 28066 ft | 405 kts | 306° |
| 2026-05-01 12:33 | 37.25461 | 26.36001 | 28337 ft | 403 kts | 306° |
| 2026-05-01 12:33 | 37.27307 | 26.33356 | 28622 ft | 402 kts | 305° |
| 2026-05-01 12:33 | 37.29140 | 26.30720 | 28908 ft | 400 kts | 305° |
| 2026-05-01 12:33 | 37.30960 | 26.28095 | 29180 ft | 398 kts | 305° |
| 2026-05-01 12:34 | 37.32774 | 26.25478 | 29470 ft | 395 kts | 305° |
| 2026-05-01 12:34 | 37.34573 | 26.22882 | 29777 ft | 393 kts | 305° |
| 2026-05-01 12:34 | 37.36358 | 26.20302 | 30059 ft | 390 kts | 305° |
| 2026-05-01 12:34 | 37.38135 | 26.17732 | 30274 ft | 389 kts | 305° |
| 2026-05-01 12:35 | 37.39905 | 26.15170 | 30464 ft | 388 kts | 304° |
| 2026-05-01 12:35 | 37.41676 | 26.12608 | 30653 ft | 388 kts | 305° |
| 2026-05-01 12:35 | 37.43442 | 26.10052 | 30834 ft | 387 kts | 304° |
| 2026-05-01 12:35 | 37.45204 | 26.07495 | 31021 ft | 386 kts | 304° |
| 2026-05-01 12:36 | 37.46964 | 26.04938 | 31200 ft | 386 kts | 304° |
| 2026-05-01 12:36 | 37.48720 | 26.02388 | 31422 ft | 385 kts | 304° |
| 2026-05-01 12:36 | 37.50474 | 25.99841 | 31628 ft | 385 kts | 304° |
| 2026-05-01 12:36 | 37.52222 | 25.97300 | 31802 ft | 384 kts | 304° |
| 2026-05-01 12:37 | 37.53965 | 25.94761 | 32011 ft | 383 kts | 304° |
| 2026-05-01 12:37 | 37.55684 | 25.92256 | 32213 ft | 382 kts | 304° |
| 2026-05-01 12:37 | 37.57434 | 25.89742 | 32413 ft | 383 kts | 307° |
| 2026-05-01 12:37 | 37.59442 | 25.87489 | 32608 ft | 391 kts | 315° |
| 2026-05-01 12:38 | 37.61818 | 25.85630 | 32788 ft | 402 kts | 323° |
| 2026-05-01 12:38 | 37.64300 | 25.84092 | 32961 ft | 403 kts | 324° |
| 2026-05-01 12:38 | 37.66817 | 25.82541 | 33127 ft | 403 kts | 324° |
| 2026-05-01 12:38 | 37.69333 | 25.80990 | 33303 ft | 402 kts | 323° |
| 2026-05-01 12:39 | 37.71879 | 25.79419 | 33477 ft | 402 kts | 323° |
| 2026-05-01 12:39 | 37.74392 | 25.77862 | 33655 ft | 402 kts | 323° |
| 2026-05-01 12:39 | 37.76863 | 25.76326 | 33827 ft | 401 kts | 323° |
| 2026-05-01 12:39 | 37.79364 | 25.74768 | 34013 ft | 401 kts | 323° |
| 2026-05-01 12:40 | 37.84344 | 25.71658 | 34077 ft | 398 kts | 323° |
| 2026-05-01 12:40 | 37.89301 | 25.68549 | 34081 ft | 397 kts | 323° |
| 2026-05-01 12:41 | 37.94253 | 25.65440 | 34076 ft | 397 kts | 323° |
| 2026-05-01 12:41 | 37.99200 | 25.62334 | 34080 ft | 396 kts | 323° |
| 2026-05-01 12:42 | 38.04132 | 25.59243 | 34111 ft | 395 kts | 323° |
| 2026-05-01 12:42 | 38.09044 | 25.56157 | 34101 ft | 394 kts | 323° |
| 2026-05-01 12:43 | 38.13956 | 25.53059 | 34101 ft | 394 kts | 322° |
| 2026-05-01 12:43 | 38.18869 | 25.49953 | 34105 ft | 394 kts | 322° |
| 2026-05-01 12:44 | 38.23779 | 25.46846 | 34108 ft | 394 kts | 322° |
| 2026-05-01 12:45 | 38.33611 | 25.40606 | 34124 ft | 395 kts | 323° |
| 2026-05-01 12:45 | 38.38533 | 25.37485 | 34126 ft | 395 kts | 323° |
| 2026-05-01 12:46 | 38.43466 | 25.34357 | 34124 ft | 396 kts | 323° |
| 2026-05-01 12:46 | 38.48392 | 25.31221 | 34139 ft | 396 kts | 323° |
| 2026-05-01 12:47 | 38.53322 | 25.28071 | 34136 ft | 397 kts | 323° |
| 2026-05-01 12:47 | 38.58272 | 25.24905 | 34133 ft | 398 kts | 323° |
| 2026-05-01 12:48 | 38.61549 | 25.22809 | 34133 ft | 398 kts | 323° |